Time;durP1;ratioP1;P1;durP2;ratioP2;P2;SDS_P1;SDS_P2;PMS_P1;PMS_P2;Temp;Humidity;BMP_temperature;BMP_pressure;BME280_temperature;BME280_humidity;BME280_pressure;Samples;Min_cycle;Max_cycle;Signal;HPM_P1;HPM_P2
2021/06/28 00:00:33;;;;;;;7.13;6.10;;;;;;;23.59;68.88;100154.78;4770366;30;20434;-83
2021/06/28 00:02:59;;;;;;;6.78;6.07;;;;;;;23.58;69.00;100157.88;4786670;30;20466;-83
2021/06/28 00:05:26;;;;;;;7.22;6.32;;;;;;;23.57;69.19;100151.56;4802428;29;20447;-84
2021/06/28 00:07:52;;;;;;;6.90;6.40;;;;;;;23.57;69.41;100157.09;4789428;29;20514;-83
2021/06/28 00:10:22;;;;;;;7.47;6.70;;;;;;;23.51;69.90;100157.63;4767727;30;20858;-83
2021/06/28 00:12:48;;;;;;;9.23;6.97;;;;;;;23.47;69.83;100160.25;4773917;30;20417;-83
2021/06/28 00:15:16;;;;;;;7.20;6.47;;;;;;;23.46;69.94;100158.63;4770425;30;20517;-83
2021/06/28 00:17:43;;;;;;;8.65;7.05;;;;;;;23.49;69.67;100151.59;4770416;30;20421;-83
2021/06/28 00:20:10;;;;;;;7.05;6.50;;;;;;;23.48;69.92;100150.00;4784046;30;20462;-84
2021/06/28 00:22:36;;;;;;;7.85;6.43;;;;;;;23.46;69.98;100149.53;4770419;30;20411;-83
2021/06/28 00:25:08;;;;;;;7.82;7.30;;;;;;;23.44;69.84;100157.34;4772044;30;20428;-83
2021/06/28 00:27:35;;;;;;;7.90;7.30;;;;;;;23.42;70.06;100163.22;4788074;30;20417;-83
2021/06/28 00:30:00;;;;;;;7.15;6.53;;;;;;;23.42;70.02;100162.41;4787123;30;20447;-83
2021/06/28 00:32:25;;;;;;;7.60;6.80;;;;;;;23.41;70.02;100160.78;4786033;30;20909;-84
2021/06/28 00:34:51;;;;;;;6.43;5.73;;;;;;;23.41;69.94;100161.63;4801632;29;20759;-83
2021/06/28 00:37:16;;;;;;;7.10;6.50;;;;;;;23.43;69.93;100156.53;4788714;29;20445;-83
2021/06/28 00:39:41;;;;;;;7.93;6.70;;;;;;;23.42;70.07;100154.09;4803482;29;20439;-83
2021/06/28 00:42:07;;;;;;;7.03;6.40;;;;;;;23.40;69.91;100139.78;4804551;29;20468;-83
2021/06/28 00:44:32;;;;;;;6.50;5.97;;;;;;;23.40;69.81;100150.84;4805808;29;20414;-83
2021/06/28 00:46:57;;;;;;;7.17;6.53;;;;;;;23.37;70.06;100157.88;4804316;29;20892;-84
2021/06/28 00:49:23;;;;;;;7.17;6.43;;;;;;;23.32;70.07;100158.03;4800077;29;20995;-84
2021/06/28 00:51:48;;;;;;;7.50;6.67;;;;;;;23.31;70.26;100158.41;4771761;30;20827;-83
2021/06/28 00:54:13;;;;;;;8.13;7.13;;;;;;;23.28;70.39;100157.13;4787580;30;20436;-83
2021/06/28 00:56:39;;;;;;;7.57;7.00;;;;;;;23.28;70.25;100160.66;4798872;29;20506;-83
2021/06/28 00:59:04;;;;;;;7.50;6.70;;;;;;;23.30;69.91;100159.53;4805557;29;20536;-83
2021/06/28 01:01:30;;;;;;;7.30;6.70;;;;;;;23.28;70.36;100157.91;4805537;29;20482;-83
2021/06/28 01:03:55;;;;;;;6.63;6.20;;;;;;;23.28;70.26;100146.84;4789495;29;20516;-83
2021/06/28 01:06:21;;;;;;;7.07;6.33;;;;;;;23.31;69.94;100148.16;4786974;29;20896;-84
2021/06/28 01:08:47;;;;;;;7.32;6.70;;;;;;;23.33;69.72;100145.03;4771476;30;20421;-83
2021/06/28 01:11:12;;;;;;;6.90;6.40;;;;;;;23.31;69.72;100145.38;4796509;29;20431;-83
2021/06/28 01:13:40;;;;;;;7.37;6.70;;;;;;;23.30;69.66;100145.72;4805300;29;20411;-83
2021/06/28 01:16:06;;;;;;;8.73;6.47;;;;;;;23.28;69.77;100146.84;4789036;29;20438;-83
2021/06/28 01:18:32;;;;;;;6.95;6.35;;;;;;;23.27;69.87;100136.97;4803115;29;20817;-83
2021/06/28 01:20:59;;;;;;;6.63;6.23;;;;;;;23.23;69.84;100140.72;4805359;29;20514;-83
2021/06/28 01:23:32;;;;;;;6.30;5.80;;;;;;;23.17;69.65;100145.66;4801172;29;20432;-83
2021/06/28 01:26:06;;;;;;;6.82;5.82;;;;;;;23.17;69.42;100134.59;4787166;30;20455;-83
2021/06/28 01:28:32;;;;;;;5.70;5.28;;;;;;;23.13;69.15;100132.81;4787734;29;20481;-83
2021/06/28 01:30:59;;;;;;;5.38;5.07;;;;;;;23.13;69.34;100130.06;4805142;29;20407;-83
2021/06/28 01:33:25;;;;;;;5.53;5.03;;;;;;;23.12;69.04;100132.00;4804928;29;20432;-83
2021/06/28 01:35:51;;;;;;;6.60;5.18;;;;;;;23.15;68.91;100125.03;4788553;29;20423;-83
2021/06/28 01:38:16;;;;;;;5.43;5.10;;;;;;;23.11;68.70;100124.06;4787045;30;20808;-83
2021/06/28 01:40:42;;;;;;;5.60;5.20;;;;;;;23.09;68.62;100127.16;4790414;29;20446;-83
2021/06/28 01:43:08;;;;;;;5.35;4.95;;;;;;;23.09;68.70;100129.91;4803685;29;20542;-83
2021/06/28 01:45:34;;;;;;;5.40;4.95;;;;;;;23.08;68.69;100124.75;4802105;29;20924;-83
2021/06/28 01:47:59;;;;;;;5.95;5.43;;;;;;;23.03;68.56;100120.22;4804326;29;20412;-83
2021/06/28 01:50:28;;;;;;;4.83;4.53;;;;;;;23.06;68.74;100133.34;4804727;29;20423;-83
2021/06/28 01:52:54;;;;;;;5.82;5.38;;;;;;;23.07;68.63;100135.00;4804776;29;20419;-83
2021/06/28 01:55:21;;;;;;;5.53;5.15;;;;;;;23.07;68.68;100139.69;4804713;29;20448;-83
2021/06/28 01:58:01;;;;;;;5.88;5.20;;;;;;;23.07;68.96;100137.75;4797440;29;20452;-83
2021/06/28 02:00:31;;;;;;;5.95;5.45;;;;;;;23.10;68.96;100127.97;4790617;29;20489;-83
2021/06/28 02:03:05;;;;;;;6.72;6.20;;;;;;;23.11;68.84;100132.38;4803990;29;20582;-83
2021/06/28 02:05:34;;;;;;;6.47;5.88;;;;;;;23.03;68.87;100136.78;4804528;29;20494;-83
2021/06/28 02:08:00;;;;;;;5.53;5.10;;;;;;;23.01;69.14;100132.75;4803840;29;20431;-83
2021/06/28 02:10:26;;;;;;;10.98;5.40;;;;;;;23.05;69.22;100137.25;4804491;29;20511;-83
2021/06/28 02:12:51;;;;;;;7.43;5.90;;;;;;;23.04;69.33;100134.84;4804693;29;20403;-83
2021/06/28 02:15:23;;;;;;;6.03;5.63;;;;;;;23.00;69.60;100139.41;4793932;29;20476;-83
2021/06/28 02:17:48;;;;;;;6.47;5.90;;;;;;;22.98;69.48;100141.72;4800313;29;20423;-83
2021/06/28 02:20:15;;;;;;;6.57;5.53;;;;;;;23.00;69.35;100136.66;4803621;29;20439;-83
2021/06/28 02:22:42;;;;;;;6.17;5.60;;;;;;;23.01;69.46;100141.03;4804527;29;20910;-83
2021/06/28 02:25:10;;;;;;;6.50;6.00;;;;;;;23.01;69.33;100141.88;4787277;29;20443;-83
2021/06/28 02:27:36;;;;;;;6.25;5.85;;;;;;;22.98;69.71;100145.28;4804559;29;20415;-83
2021/06/28 02:30:06;;;;;;;6.63;5.77;;;;;;;22.94;69.62;100146.28;4804404;29;20419;-83
2021/06/28 02:32:32;;;;;;;7.00;6.13;;;;;;;22.93;69.94;100141.91;4791761;29;20482;-83
2021/06/28 02:34:57;;;;;;;6.68;6.05;;;;;;;22.90;69.94;100137.03;4784255;30;20875;-83
2021/06/28 02:37:22;;;;;;;9.57;6.23;;;;;;;22.90;70.13;100131.50;4786426;30;20417;-83
2021/06/28 02:39:48;;;;;;;6.73;6.23;;;;;;;22.90;70.18;100120.47;4786603;30;20427;-83
2021/06/28 02:42:13;;;;;;;7.03;5.87;;;;;;;22.87;69.91;100126.66;4786431;30;20511;-83
2021/06/28 02:44:38;;;;;;;6.80;6.30;;;;;;;22.86;70.09;100119.50;4785677;30;20531;-83
2021/06/28 02:47:04;;;;;;;6.57;6.07;;;;;;;22.84;70.25;100113.50;4786318;30;20759;-83
2021/06/28 02:49:29;;;;;;;17.13;6.47;;;;;;;22.86;70.22;100111.22;4774839;30;20461;-83
2021/06/28 02:51:55;;;;;;;9.77;6.37;;;;;;;22.84;70.36;100106.03;4782795;30;20449;-83
2021/06/28 02:54:20;;;;;;;7.10;6.23;;;;;;;22.85;70.09;100107.66;4786277;30;20443;-83
2021/06/28 02:56:46;;;;;;;11.55;6.50;;;;;;;22.82;69.99;100105.56;4786156;30;20417;-83
2021/06/28 02:59:12;;;;;;;10.13;6.70;;;;;;;22.81;70.38;100100.38;4786902;29;20455;-83
2021/06/28 03:01:37;;;;;;;6.72;6.22;;;;;;;22.78;70.40;100101.84;4785004;30;20445;-83
2021/06/28 03:04:03;;;;;;;12.30;5.77;;;;;;;22.75;70.30;100099.78;4789632;30;20411;-83
2021/06/28 03:06:28;;;;;;;10.95;5.68;;;;;;;22.73;70.21;100099.28;4774003;30;20503;-83
2021/06/28 03:08:54;;;;;;;7.07;6.13;;;;;;;22.70;70.01;100095.22;4754010;30;20492;-83
2021/06/28 03:11:20;;;;;;;6.53;5.83;;;;;;;22.66;70.27;100094.28;4776790;30;20844;-83
2021/06/28 03:13:47;;;;;;;8.38;5.60;;;;;;;22.66;70.80;100090.69;4789423;30;20435;-83
2021/06/28 03:16:13;;;;;;;7.10;6.15;;;;;;;22.66;70.47;100094.28;4789297;30;20802;-83
2021/06/28 03:18:38;;;;;;;9.63;5.78;;;;;;;22.65;70.56;100076.06;4789394;30;20441;-84
2021/06/28 03:21:07;;;;;;;8.75;5.53;;;;;;;22.64;70.51;100085.50;4787241;30;20475;-83
2021/06/28 03:23:33;;;;;;;6.45;5.47;;;;;;;22.62;69.95;100073.94;4777446;30;20422;-83
2021/06/28 03:25:58;;;;;;;9.05;5.72;;;;;;;22.60;70.02;100076.25;4770201;30;20781;-83
2021/06/28 03:28:24;;;;;;;6.10;5.47;;;;;;;22.56;70.00;100075.28;4775302;30;20440;-83
2021/06/28 03:30:49;;;;;;;8.03;6.03;;;;;;;22.55;69.98;100072.88;4789106;30;20439;-83
2021/06/28 03:33:15;;;;;;;5.25;4.93;;;;;;;22.52;70.18;100070.78;4795203;29;20538;-83
2021/06/28 03:35:40;;;;;;;15.23;5.70;;;;;;;22.52;70.00;100070.78;4791884;29;20410;-83
2021/06/28 03:38:06;;;;;;;17.13;5.67;;;;;;;22.52;70.33;100068.03;4789057;30;20746;-83
2021/06/28 03:40:32;;;;;;;5.18;4.78;;;;;;;22.51;69.66;100069.97;4796197;29;20440;-83
2021/06/28 03:43:00;;;;;;;8.38;5.22;;;;;;;22.50;69.75;100068.34;4802353;29;20440;-83
2021/06/28 03:45:26;;;;;;;5.60;5.15;;;;;;;22.51;69.89;100074.69;4788832;30;20417;-84
2021/06/28 03:47:51;;;;;;;11.10;5.50;;;;;;;22.50;69.86;100079.41;4803201;29;20430;-83
2021/06/28 03:50:16;;;;;;;5.23;4.83;;;;;;;22.47;69.95;100066.25;4806858;29;20420;-83
2021/06/28 03:52:42;;;;;;;8.80;5.93;;;;;;;22.47;69.89;100057.16;4791204;29;20420;-84
2021/06/28 03:55:10;;;;;;;6.57;5.18;;;;;;;22.44;69.96;100072.44;4772768;29;20464;-83
2021/06/28 03:57:36;;;;;;;5.83;5.23;;;;;;;22.46;70.10;100081.19;4792435;29;20467;-83
2021/06/28 04:00:07;;;;;;;5.63;5.13;;;;;;;22.42;70.17;100071.97;4788559;30;20425;-83
2021/06/28 04:02:36;;;;;;;5.72;5.32;;;;;;;22.44;70.39;100060.59;4788156;30;20417;-84
2021/06/28 04:05:03;;;;;;;6.95;5.00;;;;;;;22.46;70.36;100064.63;4792601;29;20758;-83
2021/06/28 04:07:29;;;;;;;5.15;4.80;;;;;;;22.46;69.87;100064.63;4786633;29;20525;-84
2021/06/28 04:09:54;;;;;;;7.10;5.28;;;;;;;22.45;69.67;100073.25;4806572;29;20511;-83
2021/06/28 04:12:19;;;;;;;5.50;5.10;;;;;;;22.43;69.76;100079.09;4804805;29;20419;-84
2021/06/28 04:14:45;;;;;;;5.03;4.57;;;;;;;22.37;70.18;100072.16;4792361;29;20432;-84
2021/06/28 04:17:10;;;;;;;5.30;4.83;;;;;;;22.36;69.99;100072.50;4788388;30;20946;-86
2021/06/28 04:19:35;;;;;;;5.83;4.83;;;;;;;22.37;70.06;100074.91;4772288;30;20416;-85
2021/06/28 04:22:01;;;;;;;5.63;5.10;;;;;;;22.34;69.85;100074.78;4787880;29;20514;-84
2021/06/28 04:24:27;;;;;;;5.53;4.97;;;;;;;22.30;70.03;100095.88;4804601;29;20412;-84
2021/06/28 04:26:52;;;;;;;5.47;4.80;;;;;;;22.28;70.06;100092.66;4797374;29;20491;-85
2021/06/28 04:29:17;;;;;;;6.17;5.10;;;;;;;22.27;70.15;100097.38;4785888;29;20441;-84
2021/06/28 04:31:42;;;;;;;5.57;4.80;;;;;;;22.21;70.26;100102.28;4787708;29;20490;-85
2021/06/28 04:34:08;;;;;;;6.60;4.60;;;;;;;22.22;70.42;100100.31;4786608;29;20433;-85
2021/06/28 04:36:33;;;;;;;5.70;4.93;;;;;;;22.25;70.33;100102.41;4771603;30;20413;-85
2021/06/28 04:38:59;;;;;;;5.27;4.87;;;;;;;22.27;70.16;100100.13;4787946;30;20445;-84
2021/06/28 04:41:24;;;;;;;6.20;5.60;;;;;;;22.29;70.55;100106.16;4788031;30;20908;-85
2021/06/28 04:43:49;;;;;;;7.90;6.10;;;;;;;22.25;70.77;100099.66;4787548;30;20417;-85
2021/06/28 04:46:14;;;;;;;7.83;5.83;;;;;;;22.26;70.73;100103.25;4771224;30;20425;-85
2021/06/28 04:48:40;;;;;;;7.57;6.40;;;;;;;22.29;70.63;100105.34;4787302;30;20439;-84
2021/06/28 04:51:05;;;;;;;7.73;6.00;;;;;;;22.34;70.74;100102.38;4787643;30;20433;-85
2021/06/28 04:53:31;;;;;;;10.63;6.03;;;;;;;22.38;70.78;100106.09;4783604;29;20430;-85
2021/06/28 04:55:56;;;;;;;9.57;6.20;;;;;;;22.39;70.39;100116.00;4785554;30;20421;-85
2021/06/28 04:58:21;;;;;;;8.17;6.53;;;;;;;22.41;70.66;100119.25;4774292;29;20423;-85
2021/06/28 05:00:47;;;;;;;9.03;5.63;;;;;;;22.45;70.57;100117.44;4796720;29;20447;-85
2021/06/28 05:03:12;;;;;;;8.67;6.00;;;;;;;22.53;70.47;100127.63;4770592;30;20516;-84
2021/06/28 05:05:37;;;;;;;6.87;6.00;;;;;;;22.59;69.98;100129.84;4784305;29;20448;-85
2021/06/28 05:08:03;;;;;;;9.43;6.00;;;;;;;22.62;70.27;100126.44;4787095;30;20429;-84
2021/06/28 05:10:28;;;;;;;5.77;5.47;;;;;;;22.71;70.48;100126.44;4770945;30;20421;-85
2021/06/28 05:12:53;;;;;;;6.80;6.07;;;;;;;22.81;70.34;100130.75;4800925;29;20421;-84
2021/06/28 05:15:19;;;;;;;6.40;5.57;;;;;;;22.93;69.95;100133.59;4787247;30;20432;-84
2021/06/28 05:17:44;;;;;;;7.72;5.88;;;;;;;23.01;69.91;100138.28;4785879;29;20493;-84
2021/06/28 05:20:11;;;;;;;7.60;5.73;;;;;;;23.14;69.39;100132.50;4789973;29;20421;-84
2021/06/28 05:22:37;;;;;;;6.72;5.63;;;;;;;23.23;69.38;100140.72;4783057;29;20778;-85
2021/06/28 05:25:04;;;;;;;10.83;6.23;;;;;;;23.29;69.00;100139.38;4785765;29;20417;-84
2021/06/28 05:27:29;;;;;;;6.18;5.60;;;;;;;23.32;68.63;100133.16;4800702;29;20469;-84
2021/06/28 05:29:55;;;;;;;7.33;5.63;;;;;;;23.34;68.79;100146.66;4805042;29;20842;-82
2021/06/28 05:32:25;;;;;;;6.72;5.50;;;;;;;23.32;68.89;100144.22;4786823;29;20431;-82
2021/06/28 05:34:51;;;;;;;5.28;4.88;;;;;;;23.29;68.68;100131.06;4784733;30;20474;-83
2021/06/28 05:37:17;;;;;;;6.50;5.90;;;;;;;23.26;69.51;100127.03;4785558;30;20459;-83
2021/06/28 05:39:44;;;;;;;6.75;4.90;;;;;;;23.26;69.00;100126.22;4788241;29;20438;-82
2021/06/28 05:42:09;;;;;;;9.70;5.47;;;;;;;23.18;69.15;100127.13;4793504;29;20432;-81
2021/06/28 05:44:34;;;;;;;7.53;5.47;;;;;;;23.10;68.78;100131.56;4769859;30;20770;-79
2021/06/28 05:47:00;;;;;;;5.20;4.73;;;;;;;23.05;68.78;100137.25;4804499;29;20659;-81
2021/06/28 05:49:25;;;;;;;8.40;5.05;;;;;;;23.02;69.04;100140.69;4804837;29;20416;-80
2021/06/28 05:51:50;;;;;;;6.80;4.87;;;;;;;23.10;69.21;100139.03;4788353;29;20415;-80
2021/06/28 05:54:16;;;;;;;5.93;5.40;;;;;;;23.17;69.09;100142.88;4803255;29;20429;-81
2021/06/28 05:56:41;;;;;;;5.30;4.80;;;;;;;23.22;68.63;100136.31;4790827;29;20962;-80
2021/06/28 05:59:06;;;;;;;6.00;4.10;;;;;;;23.24;68.40;100136.81;4786656;30;20970;-80
2021/06/28 06:01:32;;;;;;;4.27;3.87;;;;;;;23.30;67.83;100135.47;4772923;29;20445;-80
2021/06/28 06:03:57;;;;;;;5.47;4.93;;;;;;;23.35;67.57;100137.22;4793832;29;20488;-80
2021/06/28 06:06:23;;;;;;;4.27;4.03;;;;;;;23.40;67.51;100142.53;4768714;30;20419;-80
2021/06/28 06:08:48;;;;;;;4.37;4.10;;;;;;;23.45;67.71;100143.16;4768819;30;20879;-80
2021/06/28 06:11:13;;;;;;;8.20;4.10;;;;;;;23.50;67.31;100140.22;4768734;30;20438;-81
2021/06/28 06:13:39;;;;;;;6.67;3.93;;;;;;;23.58;67.10;100142.09;4784027;29;20527;-83
2021/06/28 06:16:04;;;;;;;4.37;4.00;;;;;;;23.75;66.63;100139.16;4786726;30;20508;-82
2021/06/28 06:18:30;;;;;;;4.73;4.33;;;;;;;23.93;64.92;100137.03;4786552;30;20414;-82
2021/06/28 06:20:55;;;;;;;3.43;3.20;;;;;;;24.13;64.77;100132.63;4790824;29;20822;-82
2021/06/28 06:23:21;;;;;;;3.67;3.38;;;;;;;24.25;64.36;100139.00;4804478;29;20860;-83
2021/06/28 06:25:46;;;;;;;3.33;3.07;;;;;;;24.33;63.82;100130.94;4804431;29;20761;-83
2021/06/28 06:28:12;;;;;;;3.10;2.85;;;;;;;24.34;62.51;100138.06;4804194;29;20408;-83
2021/06/28 06:30:38;;;;;;;3.40;3.20;;;;;;;24.36;62.83;100136.59;4791266;29;20413;-84
2021/06/28 06:33:03;;;;;;;3.70;2.80;;;;;;;24.28;63.24;100145.78;4789009;29;20948;-85
2021/06/28 06:35:29;;;;;;;3.33;2.60;;;;;;;24.20;63.50;100143.94;4788792;29;20436;-85
2021/06/28 06:37:59;;;;;;;2.78;2.55;;;;;;;24.06;63.31;100135.91;4790036;30;20423;-84
2021/06/28 06:40:26;;;;;;;2.67;2.47;;;;;;;23.97;63.48;100137.16;4789772;30;20433;-85
2021/06/28 06:42:56;;;;;;;2.72;2.55;;;;;;;23.91;63.71;100141.31;4789955;30;20885;-85
2021/06/28 06:45:23;;;;;;;3.00;2.80;;;;;;;23.95;63.75;100142.22;4789967;30;20904;-85
2021/06/28 06:47:49;;;;;;;3.05;2.85;;;;;;;23.97;63.44;100151.00;4797180;29;20788;-85
2021/06/28 06:50:16;;;;;;;3.08;2.80;;;;;;;23.97;63.85;100154.59;4798514;29;20471;-85
2021/06/28 06:52:41;;;;;;;2.83;2.53;;;;;;;24.00;63.40;100153.09;4788522;30;20459;-85
2021/06/28 06:55:08;;;;;;;3.50;2.45;;;;;;;24.02;63.36;100154.34;4789739;30;20436;-84
2021/06/28 06:57:35;;;;;;;2.42;2.33;;;;;;;24.12;62.98;100161.44;4801520;29;20442;-84
2021/06/28 07:00:00;;;;;;;3.50;2.50;;;;;;;24.16;62.59;100160.44;4796047;29;20947;-85
2021/06/28 07:02:26;;;;;;;2.80;2.60;;;;;;;24.13;62.65;100163.06;4788163;29;20417;-84
2021/06/28 07:04:51;;;;;;;2.73;2.53;;;;;;;24.14;63.15;100159.13;4789420;30;20833;-84
2021/06/28 07:07:16;;;;;;;2.60;2.40;;;;;;;24.18;62.61;100168.38;4773163;30;20420;-84
2021/06/28 07:09:43;;;;;;;3.30;2.72;;;;;;;24.32;62.81;100170.84;4787782;30;20411;-84
2021/06/28 07:12:09;;;;;;;2.45;2.35;;;;;;;24.44;62.04;100176.38;4802487;29;20769;-84
2021/06/28 07:14:34;;;;;;;2.53;2.42;;;;;;;24.58;60.81;100176.88;4802921;29;20425;-84
2021/06/28 07:17:00;;;;;;;3.00;2.70;;;;;;;24.73;60.99;100179.00;4772537;30;20416;-84
2021/06/28 07:19:25;;;;;;;3.47;2.60;;;;;;;24.87;60.72;100178.66;4784683;29;20519;-85
2021/06/28 07:21:50;;;;;;;2.72;2.63;;;;;;;24.98;60.71;100174.25;4791094;29;20935;-83
2021/06/28 07:24:16;;;;;;;3.10;2.60;;;;;;;25.04;60.21;100176.44;4793522;29;20442;-83
2021/06/28 07:26:42;;;;;;;2.90;2.17;;;;;;;25.10;59.81;100172.28;4786749;29;20441;-83
2021/06/28 07:29:08;;;;;;;3.10;2.33;;;;;;;25.18;59.19;100165.81;4786250;29;20483;-84
2021/06/28 07:31:34;;;;;;;2.60;2.50;;;;;;;25.19;59.18;100166.63;4786692;29;20901;-84
2021/06/28 07:33:59;;;;;;;2.55;2.45;;;;;;;25.40;59.68;100169.22;4790025;29;20799;-83
2021/06/28 07:36:25;;;;;;;2.60;2.40;;;;;;;25.57;58.76;100177.31;4760230;30;20422;-84
2021/06/28 07:38:51;;;;;;;3.80;2.53;;;;;;;25.57;58.16;100171.75;4769329;30;20435;-84
2021/06/28 07:41:16;;;;;;;2.25;2.15;;;;;;;25.58;58.75;100163.09;4784238;30;20783;-84
2021/06/28 07:43:42;;;;;;;2.93;2.70;;;;;;;25.73;59.86;100164.28;4783343;29;20476;-84
2021/06/28 07:46:07;;;;;;;2.60;2.40;;;;;;;25.83;58.63;100174.88;4779913;29;20918;-84
2021/06/28 07:48:33;;;;;;;2.50;2.30;;;;;;;25.96;57.85;100165.34;4778842;29;20444;-85
2021/06/28 07:50:58;;;;;;;2.50;2.30;;;;;;;26.20;57.57;100172.78;4779307;29;20473;-84
2021/06/28 07:53:24;;;;;;;2.30;2.10;;;;;;;26.22;56.79;100176.00;4769882;30;20451;-83
2021/06/28 07:55:49;;;;;;;3.55;2.03;;;;;;;26.22;56.38;100187.09;4770449;30;20449;-84
2021/06/28 07:58:17;;;;;;;3.30;2.42;;;;;;;26.31;56.54;100196.88;4773688;30;20428;-83
2021/06/28 08:00:43;;;;;;;2.42;2.15;;;;;;;26.43;55.94;100201.56;4766749;30;23047;-84
2021/06/28 08:03:09;;;;;;;3.57;2.07;;;;;;;26.61;56.51;100219.50;4766335;30;20438;-84
2021/06/28 08:05:35;;;;;;;3.05;2.05;;;;;;;26.88;55.53;100220.63;4768167;30;20423;-83
2021/06/28 08:08:01;;;;;;;2.05;1.95;;;;;;;27.03;55.00;100230.13;4780578;29;20528;-84
2021/06/28 08:10:26;;;;;;;2.20;1.90;;;;;;;27.07;54.75;100231.81;4767325;30;20525;-84
2021/06/28 08:12:52;;;;;;;1.90;1.50;;;;;;;26.97;54.15;100237.91;4788792;29;20426;-84
2021/06/28 08:15:20;;;;;;;2.03;1.52;;;;;;;26.72;53.95;100242.03;4756454;30;20439;-83
2021/06/28 08:17:48;;;;;;;1.80;1.80;;;;;;;26.43;55.07;100234.09;4783407;29;20456;-84
2021/06/28 08:20:14;;;;;;;1.80;1.70;;;;;;;26.18;55.07;100225.09;4781778;29;20440;-83
2021/06/28 08:22:39;;;;;;;1.30;1.30;;;;;;;26.13;55.73;100223.34;4758811;30;20438;-83
2021/06/28 08:25:07;;;;;;;1.63;1.60;;;;;;;26.08;56.40;100225.59;4767670;30;20529;-83
2021/06/28 08:27:32;;;;;;;1.92;1.55;;;;;;;26.19;56.20;100226.69;4781388;30;20474;-83
2021/06/28 08:29:58;;;;;;;1.83;1.73;;;;;;;26.33;56.19;100227.09;4769886;30;20521;-83
2021/06/28 08:32:23;;;;;;;2.00;1.90;;;;;;;26.47;56.14;100226.69;4803231;29;20450;-83
2021/06/28 08:34:48;;;;;;;2.30;1.60;;;;;;;26.86;55.58;100236.88;4802600;29;20435;-83
2021/06/28 08:37:14;;;;;;;1.67;1.67;;;;;;;27.36;54.57;100233.31;4789596;29;20443;-83
2021/06/28 08:39:39;;;;;;;1.52;1.42;;;;;;;27.77;53.49;100231.84;4796292;29;20903;-84
2021/06/28 08:42:07;;;;;;;1.90;1.70;;;;;;;27.89;52.86;100231.72;4798074;29;20420;-84
2021/06/28 08:44:33;;;;;;;1.98;1.77;;;;;;;27.79;52.93;100224.72;4799587;29;20429;-84
2021/06/28 08:46:59;;;;;;;1.80;1.80;;;;;;;27.82;52.76;100237.13;4781680;29;20434;-84
2021/06/28 08:49:24;;;;;;;2.17;1.70;;;;;;;27.77;52.52;100238.22;4782996;29;20428;-84
2021/06/28 08:51:50;;;;;;;2.42;1.70;;;;;;;27.60;53.16;100238.63;4785702;29;20798;-84
2021/06/28 08:54:16;;;;;;;1.90;1.73;;;;;;;27.40;53.76;100227.81;4788510;29;20498;-84
2021/06/28 08:56:44;;;;;;;1.80;1.63;;;;;;;27.42;53.20;100226.28;4790872;29;20435;-84
2021/06/28 08:59:09;;;;;;;2.13;1.98;;;;;;;27.64;52.46;100211.69;4797504;29;20437;-84
2021/06/28 09:01:37;;;;;;;2.10;2.00;;;;;;;27.70;53.02;100184.34;4789713;29;20493;-84
2021/06/28 09:04:07;;;;;;;1.85;1.83;;;;;;;28.11;52.59;100185.63;4798753;29;21292;-84
2021/06/28 09:06:33;;;;;;;3.75;2.42;;;;;;;28.75;51.65;100191.19;4795980;29;20437;-83
2021/06/28 09:09:09;;;;;;;2.00;1.90;;;;;;;29.71;49.54;100179.47;4792277;29;20437;-83
2021/06/28 09:11:45;;;;;;;2.55;1.90;;;;;;;30.53;47.99;100163.66;4791637;29;20436;-83
2021/06/28 09:14:12;;;;;;;2.92;2.63;;;;;;;31.08;45.11;100159.72;4807383;29;20931;-84
2021/06/28 09:16:40;;;;;;;2.63;2.28;;;;;;;31.17;44.89;100145.34;4797594;29;20442;-83
2021/06/28 09:19:13;;;;;;;2.40;1.73;;;;;;;31.46;43.73;100149.91;4795801;29;20767;-85
2021/06/28 09:21:40;;;;;;;1.60;1.60;;;;;;;31.50;42.90;100147.13;4787162;30;20489;-84
2021/06/28 09:24:31;;;;;;;2.10;1.90;;;;;;;31.47;43.19;100157.13;4785178;29;20440;-84
2021/06/28 09:27:08;;;;;;;2.53;2.20;;;;;;;31.53;43.53;100158.38;4781750;30;20527;-84
2021/06/28 09:29:36;;;;;;;1.75;1.70;;;;;;;32.06;43.82;100157.78;4788027;29;20427;-84
2021/06/28 09:32:12;;;;;;;1.92;1.80;;;;;;;32.72;41.44;100161.91;4803749;29;20443;-85
2021/06/28 09:34:40;;;;;;;1.75;1.65;;;;;;;32.83;39.50;100165.50;4762752;30;20986;-84
2021/06/28 09:37:14;;;;;;;1.90;1.80;;;;;;;32.53;38.01;100163.06;4769070;30;20419;-85
2021/06/28 09:39:45;;;;;;;1.50;1.50;;;;;;;32.78;38.52;100169.50;4768158;30;20437;-84
2021/06/28 09:42:16;;;;;;;2.13;2.00;;;;;;;32.84;39.26;100169.91;4772487;30;20463;-83
2021/06/28 09:45:02;;;;;;;1.90;1.70;;;;;;;33.29;38.21;100180.31;4763515;30;20597;-83
2021/06/28 09:47:33;;;;;;;2.20;1.58;;;;;;;32.82;37.84;100170.31;4782697;29;20419;-83
2021/06/28 09:50:09;;;;;;;1.95;1.70;;;;;;;32.99;38.11;100174.31;4768623;30;20861;-82
2021/06/28 09:52:43;;;;;;;1.73;1.63;;;;;;;33.18;38.63;100178.72;4775960;29;21120;-84
2021/06/28 09:55:28;;;;;;;1.48;1.40;;;;;;;33.21;39.33;100181.53;4769716;30;20491;-82
2021/06/28 09:58:07;;;;;;;1.43;1.33;;;;;;;33.68;38.50;100174.59;4778501;30;20428;-82
2021/06/28 10:00:42;;;;;;;3.47;1.30;;;;;;;34.15;36.21;100181.59;4768444;30;20492;-83
2021/06/28 10:03:29;;;;;;;2.30;1.70;;;;;;;34.07;36.34;100177.22;4776863;29;20442;-84
2021/06/28 10:06:11;;;;;;;1.67;1.67;;;;;;;34.46;35.81;100181.81;4752899;30;20424;-84
2021/06/28 10:08:39;;;;;;;1.77;1.67;;;;;;;35.08;33.56;100170.44;4762277;30;20858;-82
2021/06/28 10:11:24;;;;;;;1.60;1.60;;;;;;;35.58;35.36;100168.69;4767816;30;20510;-82
2021/06/28 10:13:59;;;;;;;2.30;1.50;;;;;;;36.11;33.67;100175.72;4767844;30;20570;-84
2021/06/28 10:16:27;;;;;;;1.53;1.53;;;;;;;36.59;34.07;100173.38;4779750;29;20504;-85
2021/06/28 10:18:55;;;;;;;1.60;1.50;;;;;;;36.92;32.87;100174.44;4766018;30;20424;-83
2021/06/28 10:21:21;;;;;;;1.67;1.58;;;;;;;36.88;30.95;100168.84;4769290;30;20582;-82
2021/06/28 10:23:47;;;;;;;2.20;1.60;;;;;;;37.15;34.46;100176.50;4769292;30;20431;-82
2021/06/28 10:26:12;;;;;;;1.58;1.48;;;;;;;37.21;33.49;100171.94;4764947;30;20488;-82
2021/06/28 10:28:39;;;;;;;1.80;1.38;;;;;;;36.86;32.16;100168.50;4764974;30;20898;-82
2021/06/28 10:31:07;;;;;;;1.55;1.45;;;;;;;37.05;32.08;100172.63;4768002;30;20472;-82
2021/06/28 10:33:34;;;;;;;1.10;1.10;;;;;;;37.56;30.65;100168.44;4772957;29;20446;-82
2021/06/28 10:36:02;;;;;;;1.73;1.63;;;;;;;37.25;31.36;100164.16;4764839;30;20442;-82
2021/06/28 10:38:45;;;;;;;2.20;1.55;;;;;;;36.70;31.60;100159.09;4759501;30;20516;-82
2021/06/28 10:41:14;;;;;;;1.70;1.50;;;;;;;36.23;32.44;100149.75;4764631;30;20503;-83
2021/06/28 10:43:40;;;;;;;1.52;1.42;;;;;;;36.32;32.43;100153.66;4764551;30;20929;-82
2021/06/28 10:46:28;;;;;;;2.20;1.70;;;;;;;36.68;31.32;100145.44;4766778;30;20987;-82
2021/06/28 10:48:53;;;;;;;1.90;1.30;;;;;;;36.47;31.87;100147.75;4780035;29;21021;-83
2021/06/28 10:51:19;;;;;;;3.72;2.05;;;;;;;36.70;32.45;100154.25;4752685;30;20514;-82
2021/06/28 10:53:54;;;;;;;1.27;1.27;;;;;;;37.27;31.08;100147.59;4766651;29;20519;-83
2021/06/28 10:56:28;;;;;;;2.10;1.40;;;;;;;36.71;31.37;100147.38;4763752;30;20438;-82
2021/06/28 10:59:01;;;;;;;1.48;1.40;;;;;;;36.51;31.95;100142.84;4767275;30;20959;-82
2021/06/28 11:01:37;;;;;;;1.85;1.75;;;;;;;37.18;32.02;100144.56;4765695;30;20446;-82
2021/06/28 11:04:10;;;;;;;1.60;1.50;;;;;;;36.96;29.74;100134.84;4786046;29;20438;-82
2021/06/28 11:06:36;;;;;;;2.00;1.55;;;;;;;36.62;32.05;100133.00;4767535;30;20787;-82
2021/06/28 11:09:09;;;;;;;2.42;1.40;;;;;;;36.96;30.72;100127.16;4756368;30;20942;-82
2021/06/28 11:11:44;;;;;;;1.42;1.42;;;;;;;37.54;30.00;100133.34;4767711;30;20435;-83
2021/06/28 11:14:29;;;;;;;2.20;1.40;;;;;;;37.90;30.49;100129.31;4764323;30;20968;-83
2021/06/28 11:17:06;;;;;;;1.40;1.40;;;;;;;38.30;29.17;100132.06;4763796;30;20526;-83
2021/06/28 11:19:49;;;;;;;1.60;1.40;;;;;;;38.41;28.82;100124.91;4766158;30;20431;-84
2021/06/28 11:22:34;;;;;;;1.27;1.27;;;;;;;38.86;28.75;100130.66;4790749;29;20948;-84
2021/06/28 11:25:09;;;;;;;1.58;1.48;;;;;;;39.06;27.14;100124.84;4766353;30;20521;-84